Time;durP1;ratioP1;P1;durP2;ratioP2;P2;SDS_P1;SDS_P2;PMS_P1;PMS_P2;Temp;Humidity;BMP_temperature;BMP_pressure;BME280_temperature;BME280_humidity;BME280_pressure;Samples;Min_cycle;Max_cycle;Signal;HPM_P1;HPM_P2
2021/05/14 00:02:08;;;;;;;6.40;3.50;;;;;;;13.22;77.12;95634.50;1707992;82;25749;-89
2021/05/14 00:04:35;;;;;;;10.35;4.05;;;;;;;13.22;77.19;95633.96;1719671;82;25701;-88
2021/05/14 00:07:02;;;;;;;5.00;2.37;;;;;;;13.21;77.17;95633.69;1729669;82;27426;-88
2021/05/14 00:09:28;;;;;;;2.95;2.42;;;;;;;13.19;77.17;95631.78;1707428;82;26360;-87
2021/05/14 00:11:55;;;;;;;3.70;2.22;;;;;;;13.19;77.22;95636.39;1729724;82;25581;-88
2021/05/14 00:14:22;;;;;;;2.87;2.05;;;;;;;13.17;77.18;95635.30;1729581;82;26288;-89
2021/05/14 00:16:48;;;;;;;4.20;1.87;;;;;;;13.16;77.21;95632.89;1727727;82;25956;-89
2021/05/14 00:19:15;;;;;;;5.17;2.27;;;;;;;13.15;77.18;95633.43;1708407;82;27303;-87
2021/05/14 00:21:42;;;;;;;4.97;2.77;;;;;;;13.13;77.21;95634.20;1718738;82;25630;-87
2021/05/14 00:24:09;;;;;;;3.60;2.50;;;;;;;13.12;77.17;95631.77;1699530;82;25753;-87
2021/05/14 00:26:35;;;;;;;9.78;3.15;;;;;;;13.12;77.22;95633.11;1720014;81;25710;-89
2021/05/14 00:29:02;;;;;;;4.45;2.35;;;;;;;13.11;77.31;95632.30;1727178;82;25683;-88
2021/05/14 00:31:29;;;;;;;7.40;2.50;;;;;;;13.10;77.27;95629.86;1727620;82;27465;-88
2021/05/14 00:33:55;;;;;;;4.40;2.60;;;;;;;13.09;77.27;95629.59;1712133;82;25974;-88
2021/05/14 00:36:24;;;;;;;3.40;2.27;;;;;;;13.08;77.26;95625.25;1714680;82;25688;-88
2021/05/14 00:38:50;;;;;;;3.50;2.37;;;;;;;13.08;77.25;95630.12;1729509;82;25696;-89
2021/05/14 00:41:17;;;;;;;5.37;2.67;;;;;;;13.08;77.27;95635.55;1716724;82;26210;-88
2021/05/14 00:43:43;;;;;;;5.25;3.00;;;;;;;13.07;77.30;95636.63;1699682;82;28033;-88
2021/05/14 00:46:10;;;;;;;2.77;2.12;;;;;;;13.05;77.28;95634.72;1699550;82;25730;-88
2021/05/14 00:48:38;;;;;;;3.33;2.27;;;;;;;13.04;77.28;95629.03;1718477;82;25609;-89
2021/05/14 00:51:05;;;;;;;3.62;2.58;;;;;;;13.04;77.33;95632.31;1720106;82;26112;-88
2021/05/14 00:53:32;;;;;;;3.20;1.70;;;;;;;13.03;77.38;95634.74;1701509;82;25659;-89
2021/05/14 00:55:59;;;;;;;3.05;1.90;;;;;;;13.01;77.39;95632.84;1699340;82;27562;-89
2021/05/14 00:58:26;;;;;;;2.22;1.70;;;;;;;13.01;77.37;95636.91;1692606;82;25846;-89
2021/05/14 01:00:52;;;;;;;3.25;1.52;;;;;;;13.00;77.36;95630.67;1706992;82;25682;-89
2021/05/14 01:03:19;;;;;;;4.83;1.82;;;;;;;12.99;77.40;95633.10;1708430;82;26188;-88
2021/05/14 01:05:45;;;;;;;2.10;1.32;;;;;;;12.98;77.38;95629.58;1699303;82;25618;-87
2021/05/14 01:08:12;;;;;;;2.60;1.62;;;;;;;12.98;77.38;95638.25;1699500;82;27371;-88
2021/05/14 01:10:39;;;;;;;6.10;1.95;;;;;;;12.96;77.42;95630.92;1713432;82;25770;-88
2021/05/14 01:13:05;;;;;;;3.62;1.50;;;;;;;12.95;77.42;95636.06;1726531;82;25751;-88
2021/05/14 01:15:32;;;;;;;3.25;1.50;;;;;;;12.95;77.50;95632.01;1714151;82;25673;-87
2021/05/14 01:17:59;;;;;;;2.00;1.62;;;;;;;12.95;77.47;95633.36;1720012;82;25683;-88
2021/05/14 01:20:29;;;;;;;2.05;1.40;;;;;;;12.94;77.54;95637.14;1721021;82;27334;-87
2021/05/14 01:22:56;;;;;;;3.12;1.50;;;;;;;12.94;77.53;95631.73;1705147;82;25716;-86
2021/05/14 01:25:23;;;;;;;1.98;1.45;;;;;;;12.94;77.58;95630.38;1705770;82;25644;-89
2021/05/14 01:27:50;;;;;;;2.17;1.47;;;;;;;12.94;77.59;95634.44;1711505;82;25661;-90
2021/05/14 01:30:18;;;;;;;6.05;1.80;;;;;;;12.94;77.66;95631.73;1709073;82;25597;-89
2021/05/14 01:32:45;;;;;;;3.45;2.10;;;;;;;12.91;77.60;95631.75;1735357;82;27461;-88
2021/05/14 01:35:11;;;;;;;2.85;2.00;;;;;;;12.92;77.62;95629.86;1733945;82;25697;-87
2021/05/14 01:37:40;;;;;;;2.42;1.95;;;;;;;12.92;77.65;95628.50;1731827;82;25591;-87
2021/05/14 01:40:09;;;;;;;5.12;2.25;;;;;;;12.92;77.61;95628.50;1734762;82;26033;-88
2021/05/14 01:42:35;;;;;;;6.90;2.55;;;;;;;12.90;77.64;95625.25;1732796;82;25722;-87
2021/05/14 01:45:05;;;;;;;2.47;1.72;;;;;;;12.88;77.64;95625.52;1732646;82;27302;-88
2021/05/14 01:47:32;;;;;;;2.45;1.67;;;;;;;12.88;77.69;95628.22;1733658;82;25562;-87
2021/05/14 01:49:59;;;;;;;2.80;1.50;;;;;;;12.89;77.71;95627.14;1731741;82;26277;-87
2021/05/14 01:52:25;;;;;;;7.45;1.75;;;;;;;12.89;77.71;95624.97;1731323;82;25600;-88
2021/05/14 01:54:52;;;;;;;3.10;1.95;;;;;;;12.89;77.71;95623.62;1733793;82;25736;-88
2021/05/14 01:57:18;;;;;;;2.20;1.72;;;;;;;12.89;77.73;95623.62;1733798;82;27477;-88
2021/05/14 01:59:45;;;;;;;2.85;1.77;;;;;;;12.89;77.71;95627.68;1726402;82;25957;-88
2021/05/14 02:02:18;;;;;;;3.47;1.40;;;;;;;12.89;77.68;95627.68;1726465;82;25586;-88
2021/05/14 02:04:40;;;;;;;6.50;2.22;;;;;;;12.89;77.72;95626.33;1732528;82;26102;-88
2021/05/14 02:07:06;;;;;;;4.33;1.87;;;;;;;12.88;77.73;95628.22;1730864;82;25527;-89
2021/05/14 02:09:33;;;;;;;3.52;1.75;;;;;;;12.89;77.70;95630.39;1743755;81;27508;-89
2021/05/14 02:12:00;;;;;;;2.77;1.55;;;;;;;12.91;77.67;95628.23;1729152;82;25706;-86
2021/05/14 02:14:27;;;;;;;6.33;2.00;;;;;;;12.89;77.68;95633.91;1731588;81;25648;-88
2021/05/14 02:16:53;;;;;;;2.92;1.90;;;;;;;12.86;77.68;95639.05;1713664;82;26182;-88
2021/05/14 02:19:20;;;;;;;4.42;1.67;;;;;;;12.84;77.65;95633.08;1710663;82;26310;-87
2021/05/14 02:21:46;;;;;;;3.37;1.50;;;;;;;12.80;77.72;95627.95;1699627;82;27307;-87
2021/05/14 02:24:13;;;;;;;2.45;1.60;;;;;;;12.76;77.74;95629.02;1733558;82;25675;-86
2021/05/14 02:26:40;;;;;;;2.65;1.70;;;;;;;12.77;77.78;95633.34;1731648;82;26016;-87
2021/05/14 02:29:06;;;;;;;2.85;1.50;;;;;;;12.76;77.84;95632.26;1733584;82;25695;-86
2021/05/14 02:31:33;;;;;;;1.90;1.50;;;;;;;12.75;77.85;95630.62;1733367;82;25640;-87
2021/05/14 02:34:00;;;;;;;1.65;1.55;;;;;;;12.76;77.85;95633.61;1719639;82;28038;-87
2021/05/14 02:36:26;;;;;;;4.92;2.87;;;;;;;12.74;77.87;95629.00;1717561;82;25794;-88
2021/05/14 02:38:53;;;;;;;3.10;1.75;;;;;;;12.75;77.87;95633.34;1713593;82;25646;-87
2021/05/14 02:41:19;;;;;;;1.65;1.55;;;;;;;12.73;77.93;95627.38;1722824;82;25705;-87
2021/05/14 02:43:46;;;;;;;4.47;2.00;;;;;;;12.71;77.97;95630.88;1725967;82;25649;-88
2021/05/14 02:46:12;;;;;;;4.00;2.50;;;;;;;12.69;78.01;95631.69;1718731;82;27528;-87
2021/05/14 02:48:39;;;;;;;3.80;2.40;;;;;;;12.70;78.07;95633.31;1717492;82;25584;-87
2021/05/14 02:51:06;;;;;;;3.17;2.47;;;;;;;12.73;78.08;95635.49;1724013;82;25563;-87
2021/05/14 02:53:33;;;;;;;3.70;1.90;;;;;;;12.71;78.08;95630.34;1724088;82;25816;-88
2021/05/14 02:56:00;;;;;;;2.92;2.20;;;;;;;12.70;78.17;95631.42;1718153;82;25659;-87
2021/05/14 02:58:27;;;;;;;5.12;2.50;;;;;;;12.69;78.12;95631.14;1721659;82;27379;-87
2021/05/14 03:00:53;;;;;;;5.33;2.05;;;;;;;12.70;78.14;95632.77;1723918;82;25552;-86
2021/05/14 03:03:20;;;;;;;4.15;2.22;;;;;;;12.70;78.14;95636.02;1720724;82;26259;-87
2021/05/14 03:05:46;;;;;;;2.92;2.30;;;;;;;12.70;78.17;95636.02;1714148;82;25633;-87
2021/05/14 03:08:13;;;;;;;3.77;2.00;;;;;;;12.71;78.17;95639.00;1718046;83;25719;-86
2021/05/14 03:10:39;;;;;;;2.67;2.17;;;;;;;12.72;78.16;95640.63;1722070;82;27332;-87
2021/05/14 03:13:06;;;;;;;2.72;1.90;;;;;;;12.73;78.21;95642.27;1719803;82;25683;-86
2021/05/14 03:15:33;;;;;;;2.52;2.22;;;;;;;12.73;78.22;95643.61;1721940;82;25562;-86
2021/05/14 03:17:59;;;;;;;2.00;1.90;;;;;;;12.73;78.25;95644.42;1724134;82;25599;-87
2021/05/14 03:20:26;;;;;;;5.70;2.92;;;;;;;12.72;78.22;95640.09;1714765;83;25258;-87
2021/05/14 03:22:52;;;;;;;5.67;3.55;;;;;;;12.75;78.22;95641.45;1723126;82;27475;-86
2021/05/14 03:25:19;;;;;;;3.80;2.55;;;;;;;12.75;78.19;95645.52;1723796;83;25844;-86
2021/05/14 03:27:46;;;;;;;6.47;3.27;;;;;;;12.70;78.15;95642.25;1711285;82;25700;-85
2021/05/14 03:30:14;;;;;;;4.20;2.40;;;;;;;12.71;78.30;95645.23;1720345;82;26188;-87
2021/05/14 03:32:40;;;;;;;4.75;2.75;;;;;;;12.71;78.32;95647.13;1724048;82;25675;-86
2021/05/14 03:35:08;;;;;;;2.75;2.37;;;;;;;12.72;78.38;95648.75;1728411;82;28026;-86
2021/05/14 03:37:35;;;;;;;3.47;2.60;;;;;;;12.72;78.37;95656.34;1721518;82;25977;-87
2021/05/14 03:40:13;;;;;;;2.83;2.22;;;;;;;12.70;78.30;95654.43;1718233;82;25631;-85
2021/05/14 03:42:30;;;;;;;3.10;2.42;;;;;;;12.71;78.37;95655.25;1719980;82;25659;-85
2021/05/14 03:44:57;;;;;;;2.58;2.37;;;;;;;12.72;78.33;95659.05;1721983;82;25642;-86
2021/05/14 03:47:24;;;;;;;3.70;2.50;;;;;;;12.73;78.29;95657.97;1710943;82;27959;-87
2021/05/14 03:49:51;;;;;;;4.90;2.80;;;;;;;12.76;78.30;95656.63;1723745;82;25786;-87
2021/05/14 03:52:18;;;;;;;4.45;2.47;;;;;;;12.75;78.33;95661.22;1716422;82;26339;-86
2021/05/14 03:54:44;;;;;;;11.08;5.35;;;;;;;12.76;78.36;95664.75;1724086;82;25635;-87
2021/05/14 03:57:11;;;;;;;7.10;2.98;;;;;;;12.77;78.30;95660.96;1724034;82;25578;-87
2021/05/14 03:59:38;;;;;;;8.18;3.95;;;;;;;12.79;78.29;95666.93;1723842;82;28176;-86
2021/05/14 04:02:05;;;;;;;3.00;2.33;;;;;;;12.80;78.32;95670.70;1723780;82;25738;-87
2021/05/14 04:04:31;;;;;;;5.15;2.67;;;;;;;12.78;78.35;95670.17;1723899;82;25248;-88
2021/05/14 04:07:03;;;;;;;5.80;2.98;;;;;;;12.78;78.31;95676.12;1723983;82;25632;-88
2021/05/14 04:09:32;;;;;;;3.92;2.70;;;;;;;12.81;78.35;95666.09;1719415;82;25638;-88
2021/05/14 04:12:10;;;;;;;3.60;2.40;;;;;;;12.84;78.32;95670.98;1713814;82;27538;-86
2021/05/14 04:14:34;;;;;;;2.83;2.22;;;;;;;12.86;78.30;95664.77;1720284;82;25382;-88
2021/05/14 04:17:06;;;;;;;5.28;2.17;;;;;;;12.88;78.26;95669.38;1717900;82;25638;-89
2021/05/14 04:19:33;;;;;;;8.05;2.70;;;;;;;12.86;78.16;95664.77;1722306;82;25750;-88
2021/05/14 04:22:03;;;;;;;3.02;1.85;;;;;;;12.85;78.16;95666.66;1720955;83;25637;-87
2021/05/14 04:24:30;;;;;;;5.80;1.80;;;;;;;12.82;78.18;95678.02;1723303;82;27506;-87
2021/05/14 04:26:58;;;;;;;2.17;1.72;;;;;;;12.77;78.15;95678.02;1717822;82;25653;-88
2021/05/14 04:29:25;;;;;;;2.02;1.70;;;;;;;12.79;78.19;95677.76;1718085;82;25671;-88
2021/05/14 04:31:51;;;;;;;3.62;2.27;;;;;;;12.79;78.28;95677.76;1723996;82;25702;-88
2021/05/14 04:34:20;;;;;;;3.47;1.77;;;;;;;12.81;78.29;95675.57;1728246;82;25704;-88
2021/05/14 04:36:47;;;;;;;2.27;1.95;;;;;;;12.81;78.32;95681.80;1706262;82;27480;-89
2021/05/14 04:39:14;;;;;;;5.28;1.80;;;;;;;12.77;78.38;95678.02;1699288;82;25652;-88
2021/05/14 04:41:41;;;;;;;3.12;1.70;;;;;;;12.75;78.34;95687.48;1720544;82;25682;-87
2021/05/14 04:44:08;;;;;;;2.72;2.15;;;;;;;12.72;78.33;95679.34;1720345;82;26214;-89
2021/05/14 04:46:35;;;;;;;2.25;2.05;;;;;;;12.75;78.38;95682.06;1699277;82;26501;-88
2021/05/14 04:49:01;;;;;;;5.20;2.10;;;;;;;12.77;78.31;95686.14;1699519;82;27171;-90
2021/05/14 04:51:29;;;;;;;4.05;2.40;;;;;;;12.77;78.21;95685.33;1727113;82;25577;-88
2021/05/14 04:53:57;;;;;;;2.22;1.75;;;;;;;12.80;78.26;95683.45;1724910;82;25642;-88
2021/05/14 04:56:23;;;;;;;2.70;2.05;;;;;;;12.82;78.12;95685.33;1705327;82;25734;-89
2021/05/14 04:58:50;;;;;;;2.70;1.62;;;;;;;12.85;78.08;95692.92;1720525;82;25835;-88
2021/05/14 05:01:17;;;;;;;2.25;1.32;;;;;;;12.87;78.05;95689.41;1720415;82;28039;-90
2021/05/14 05:03:48;;;;;;;2.55;1.60;;;;;;;12.87;77.97;95694.29;1709199;82;26359;-89
2021/05/14 05:06:15;;;;;;;3.45;1.80;;;;;;;12.87;78.11;95695.64;1699377;82;25603;-88
2021/05/14 05:08:41;;;;;;;3.27;1.67;;;;;;;12.88;78.29;95696.45;1717659;82;26356;-88
2021/05/14 05:11:08;;;;;;;4.05;1.47;;;;;;;12.82;78.34;95698.86;1702068;82;25555;-87
2021/05/14 05:13:34;;;;;;;5.28;1.70;;;;;;;12.79;78.42;95702.13;1715473;82;27571;-89
2021/05/14 05:16:01;;;;;;;3.42;1.82;;;;;;;12.81;78.48;95700.75;1705176;82;25765;-87
2021/05/14 05:18:28;;;;;;;2.35;1.77;;;;;;;12.82;78.50;95700.22;1699688;82;25688;-86
2021/05/14 05:20:55;;;;;;;3.15;1.90;;;;;;;12.83;78.44;95703.20;1720271;82;25949;-87
2021/05/14 05:23:21;;;;;;;4.75;1.98;;;;;;;12.80;78.50;95705.11;1699197;82;25678;-87
2021/05/14 05:25:48;;;;;;;5.85;3.35;;;;;;;12.80;78.58;95709.17;1699842;82;27635;-88
2021/05/14 05:28:19;;;;;;;5.50;2.95;;;;;;;12.73;78.61;95707.23;1705868;82;25701;-88
2021/05/14 05:30:45;;;;;;;6.28;3.90;;;;;;;12.67;78.64;95712.38;1713759;82;25633;-88
2021/05/14 05:33:12;;;;;;;7.08;3.87;;;;;;;12.70;78.77;95717.23;1699588;82;25738;-87
2021/05/14 05:35:38;;;;;;;5.25;2.87;;;;;;;12.74;78.72;95716.45;1708880;82;25630;-87
2021/05/14 05:38:21;;;;;;;6.70;3.50;;;;;;;12.78;78.63;95718.09;1710976;82;28038;-88
2021/05/14 05:40:50;;;;;;;5.28;3.12;;;;;;;12.79;78.62;95718.37;1721903;82;25715;-88
2021/05/14 05:43:17;;;;;;;8.35;3.20;;;;;;;12.82;78.65;95717.81;1709015;82;25788;-89
2021/05/14 05:45:45;;;;;;;5.03;3.37;;;;;;;12.81;78.60;95726.48;1707562;82;26088;-89
2021/05/14 05:48:12;;;;;;;6.37;3.40;;;;;;;12.84;78.64;95731.91;1729612;82;26346;-88
2021/05/14 05:50:39;;;;;;;2.90;2.17;;;;;;;12.84;78.60;95734.08;1723653;82;27362;-91
2021/05/14 05:53:11;;;;;;;2.65;1.72;;;;;;;12.84;78.53;95733.27;1715065;82;25617;-87
2021/05/14 05:55:35;;;;;;;3.62;2.10;;;;;;;12.85;78.27;95738.95;1724202;82;25597;-88
2021/05/14 05:58:13;;;;;;;3.12;1.85;;;;;;;12.84;78.16;95735.97;1699863;82;25893;-87
2021/05/14 06:00:41;;;;;;;2.52;1.98;;;;;;;12.84;78.16;95742.73;1720783;82;25727;-89
2021/05/14 06:03:10;;;;;;;6.35;2.08;;;;;;;12.84;78.11;95741.38;1712566;82;28354;-88
2021/05/14 06:05:40;;;;;;;4.12;2.33;;;;;;;12.79;78.14;95738.67;1706271;82;25638;-90
2021/05/14 06:08:08;;;;;;;3.02;2.08;;;;;;;12.78;78.10;95745.17;1703770;82;25645;-89
2021/05/14 06:10:36;;;;;;;2.50;1.75;;;;;;;12.79;78.11;95752.22;1753184;81;26239;-89
2021/05/14 06:13:03;;;;;;;1.92;1.37;;;;;;;12.80;78.11;95749.78;1721594;83;25633;-89
2021/05/14 06:15:29;;;;;;;3.90;1.85;;;;;;;12.80;78.03;95749.78;1753223;81;27409;-88
2021/05/14 06:17:56;;;;;;;2.55;1.85;;;;;;;12.80;77.97;95754.63;1723048;82;25674;-88
2021/05/14 06:20:25;;;;;;;2.65;1.87;;;;;;;12.82;78.00;95759.78;1751324;81;25636;-87
2021/05/14 06:22:51;;;;;;;3.37;1.98;;;;;;;12.82;77.99;95761.14;1695881;83;25684;-89
2021/05/14 06:25:18;;;;;;;3.05;1.85;;;;;;;12.83;78.01;95769.00;1753203;81;25717;-88
2021/05/14 06:27:45;;;;;;;2.45;1.98;;;;;;;12.84;78.04;95768.46;1723095;82;28207;-87
2021/05/14 06:30:14;;;;;;;5.58;1.75;;;;;;;12.84;78.06;95764.40;1705938;83;25715;-88
2021/05/14 06:32:41;;;;;;;2.75;2.02;;;;;;;12.82;78.03;95770.62;1709194;81;25629;-87
2021/05/14 06:35:09;;;;;;;2.83;1.40;;;;;;;12.81;77.99;95768.45;1753172;81;25580;-87
2021/05/14 06:37:37;;;;;;;1.98;1.50;;;;;;;12.82;77.97;95773.32;1747264;81;25585;-87
2021/05/14 06:40:06;;;;;;;2.27;2.08;;;;;;;12.82;77.85;95777.38;1738639;81;28305;-87
2021/05/14 06:42:34;;;;;;;23.40;10.08;;;;;;;12.82;77.87;95776.03;1747683;81;25699;-87
2021/05/14 06:45:00;;;;;;;18.90;9.05;;;;;;;12.84;77.91;95780.64;1738225;81;25693;-88
2021/05/14 06:47:27;;;;;;;14.20;9.05;;;;;;;12.84;77.84;95781.46;1742460;81;25581;-89
2021/05/14 06:49:54;;;;;;;6.97;4.25;;;;;;;12.84;77.82;95777.41;1739211;81;25620;-88
2021/05/14 06:52:20;;;;;;;3.45;2.02;;;;;;;12.82;77.75;95781.45;1703383;82;27280;-89
2021/05/14 06:54:47;;;;;;;5.08;1.52;;;;;;;12.79;77.59;95782.81;1750723;81;25771;-88
2021/05/14 06:57:14;;;;;;;3.10;1.55;;;;;;;12.76;77.55;95790.64;1752036;80;25665;-88
2021/05/14 06:59:40;;;;;;;2.87;1.60;;;;;;;12.75;77.54;95794.42;1753326;81;25671;-88
2021/05/14 07:02:07;;;;;;;1.20;1.00;;;;;;;12.76;77.65;95800.12;1723217;82;25637;-87
2021/05/14 07:04:34;;;;;;;1.95;1.42;;;;;;;12.78;77.67;95806.09;1753221;81;27342;-87
2021/05/14 07:07:01;;;;;;;2.33;1.42;;;;;;;12.78;77.63;95807.44;1701071;83;25778;-89
2021/05/14 07:09:27;;;;;;;2.83;1.65;;;;;;;12.76;77.59;95810.95;1753133;81;25641;-89
2021/05/14 07:11:54;;;;;;;3.85;1.70;;;;;;;12.75;77.59;95812.02;1723039;82;26070;-88
2021/05/14 07:14:21;;;;;;;2.45;1.52;;;;;;;12.76;77.66;95813.12;1753370;81;25609;-87
2021/05/14 07:16:47;;;;;;;3.62;1.90;;;;;;;12.75;77.76;95814.73;1753224;81;27325;-89
2021/05/14 07:19:14;;;;;;;5.78;4.03;;;;;;;12.69;77.84;95810.35;1722972;82;25617;-88
2021/05/14 07:21:42;;;;;;;5.87;4.25;;;;;;;12.71;77.95;95816.33;1753257;81;25671;-87
2021/05/14 07:24:09;;;;;;;6.70;4.20;;;;;;;12.73;77.94;95818.23;1723049;83;25647;-87
2021/05/14 07:26:36;;;;;;;4.53;3.08;;;;;;;12.76;77.91;95821.78;1753195;81;25594;-86
2021/05/14 07:29:05;;;;;;;3.42;2.40;;;;;;;12.77;77.82;95827.47;1723184;83;27305;-88
2021/05/14 07:31:32;;;;;;;4.78;2.60;;;;;;;12.79;77.81;95828.03;1753234;81;25690;-89
2021/05/14 07:33:59;;;;;;;7.03;2.42;;;;;;;12.77;77.77;95824.23;1735472;81;26286;-87
2021/05/14 07:36:26;;;;;;;4.42;2.12;;;;;;;12.76;77.82;95826.66;1751303;81;26112;-87
2021/05/14 07:38:53;;;;;;;4.75;2.60;;;;;;;12.72;77.85;95830.14;1748643;80;25621;-88
2021/05/14 07:41:20;;;;;;;5.15;3.02;;;;;;;12.69;77.97;95832.02;1751028;81;26778;-88
2021/05/14 07:43:47;;;;;;;5.08;3.47;;;;;;;12.69;77.97;95832.02;1747176;81;25630;-87
2021/05/14 07:46:13;;;;;;;4.50;3.05;;;;;;;12.70;77.97;95834.99;1749454;81;25602;-88
2021/05/14 07:48:40;;;;;;;4.30;2.65;;;;;;;12.68;78.01;95842.59;1752866;81;25618;-86
2021/05/14 07:51:07;;;;;;;4.33;2.90;;;;;;;12.68;78.15;95837.17;1753241;81;25665;-86
2021/05/14 07:53:33;;;;;;;4.15;2.95;;;;;;;12.68;78.19;95839.31;1751961;81;28008;-86
2021/05/14 07:56:01;;;;;;;4.08;2.98;;;;;;;12.70;78.24;95844.47;1751656;81;25597;-87
2021/05/14 07:58:27;;;;;;;7.58;3.75;;;;;;;12.70;78.30;95848.53;1748411;81;25660;-86
2021/05/14 08:00:54;;;;;;;7.58;3.65;;;;;;;12.68;78.35;95843.95;1749465;81;25707;-86
2021/05/14 08:03:21;;;;;;;4.78;3.37;;;;;;;12.65;78.30;95848.52;1750574;81;25654;-85
2021/05/14 08:05:49;;;;;;;4.28;3.35;;;;;;;12.66;78.41;95856.92;1752767;81;28046;-86
2021/05/14 08:08:19;;;;;;;11.80;7.45;;;;;;;12.68;78.43;95856.91;1750525;81;25564;-87
2021/05/14 08:10:50;;;;;;;8.80;5.87;;;;;;;12.69;78.47;95853.13;1722142;81;25934;-86
2021/05/14 08:13:17;;;;;;;9.80;6.80;;;;;;;12.68;78.43;95859.62;1709948;83;25688;-86
2021/05/14 08:15:45;;;;;;;11.70;4.67;;;;;;;12.68;78.44;95852.06;1713270;82;25646;-86
2021/05/14 08:18:12;;;;;;;6.60;3.33;;;;;;;12.69;78.46;95859.08;1717196;82;27395;-86
2021/05/14 08:20:41;;;;;;;6.17;3.50;;;;;;;12.67;78.42;95859.91;1704863;82;25992;-86
2021/05/14 08:23:08;;;;;;;7.47;4.45;;;;;;;12.62;78.43;95860.14;1711840;82;25602;-87
2021/05/14 08:25:35;;;;;;;8.45;4.75;;;;;;;12.57;78.47;95862.80;1734797;82;26095;-87
2021/05/14 08:28:03;;;;;;;25.92;9.08;;;;;;;12.55;78.42;95859.57;1708283;82;25663;-88
2021/05/14 08:30:30;;;;;;;10.58;5.95;;;;;;;12.60;78.44;95867.70;1719543;82;27341;-86
2021/05/14 08:32:57;;;;;;;10.13;5.08;;;;;;;12.62;78.54;95869.62;1710668;82;26390;-88
2021/05/14 08:35:23;;;;;;;10.60;7.42;;;;;;;12.63;78.53;95871.25;1705413;82;25685;-88
2021/05/14 08:37:51;;;;;;;10.13;7.25;;;;;;;12.66;78.56;95879.93;1706677;83;25465;-88
2021/05/14 08:40:18;;;;;;;9.85;7.12;;;;;;;12.67;78.59;95877.50;1705471;83;25572;-86
2021/05/14 08:42:45;;;;;;;16.20;9.83;;;;;;;12.63;78.64;95881.27;1720417;83;27296;-88
2021/05/14 08:45:14;;;;;;;14.47;8.23;;;;;;;12.57;78.53;95885.00;1725633;83;25757;-88
2021/05/14 08:47:42;;;;;;;12.43;7.87;;;;;;;12.59;78.64;95885.02;1723885;83;25628;-88
2021/05/14 08:50:11;;;;;;;12.50;7.20;;;;;;;12.63;78.67;95888.03;1702673;82;25584;-89
2021/05/14 08:52:41;;;;;;;15.88;8.73;;;;;;;12.58;78.63;95880.68;1708860;82;25701;-88
2021/05/14 08:55:12;;;;;;;14.50;8.68;;;;;;;12.58;78.75;95890.69;1682281;83;26782;-89
2021/05/14 08:57:40;;;;;;;13.25;8.33;;;;;;;12.60;78.84;95885.84;1716294;83;25690;-87
2021/05/14 09:00:10;;;;;;;14.40;8.18;;;;;;;12.58;78.85;95894.21;1731068;82;26293;-87
2021/05/14 09:02:38;;;;;;;12.35;9.08;;;;;;;12.61;78.98;95898.30;1734600;81;25676;-87
2021/05/14 09:05:26;;;;;;;15.05;8.90;;;;;;;12.68;79.08;95898.09;1724898;81;25792;-87
2021/05/14 09:07:58;;;;;;;22.07;10.93;;;;;;;12.68;79.04;95901.58;1699912;81;28179;-87
2021/05/14 09:10:27;;;;;;;14.10;11.15;;;;;;;12.70;79.07;95902.67;1669796;84;26622;-87
2021/05/14 09:12:55;;;;;;;14.80;10.75;;;;;;;12.73;79.02;95912.99;1743959;82;25720;-87
2021/05/14 09:15:34;;;;;;;19.45;10.70;;;;;;;12.75;78.99;95916.27;1743972;82;25455;-88
2021/05/14 09:18:19;;;;;;;17.60;11.10;;;;;;;12.74;79.00;95916.80;1743783;82;25678;-87
2021/05/14 09:20:58;;;;;;;19.85;10.53;;;;;;;12.75;79.00;95921.14;1735520;82;27429;-89
2021/05/14 09:23:37;;;;;;;16.02;10.75;;;;;;;12.77;79.03;95920.88;1737019;82;26379;-88
2021/05/14 09:26:07;;;;;;;17.70;10.82;;;;;;;12.79;79.02;95925.50;1707013;81;25591;-88
2021/05/14 09:28:43;;;;;;;16.27;10.20;;;;;;;12.81;78.98;95923.33;1714054;83;25635;-88
2021/05/14 09:31:16;;;;;;;13.50;10.03;;;;;;;12.82;78.96;95931.73;1716873;83;25650;-87
2021/05/14 09:33:48;;;;;;;14.13;9.85;;;;;;;12.76;78.96;95932.78;1699798;83;28331;-87
2021/05/14 09:36:20;;;;;;;19.30;11.25;;;;;;;12.74;79.02;95937.10;1703547;82;31111;-87
2021/05/14 09:38:57;;;;;;;15.43;11.53;;;;;;;12.77;79.08;95937.13;1721611;82;25806;-87
2021/05/14 09:41:44;;;;;;;18.98;11.12;;;;;;;12.77;79.11;95941.19;1734929;82;25628;-86
2021/05/14 09:44:18;;;;;;;15.43;11.53;;;;;;;12.80;79.14;95939.32;1710952;82;25628;-89
2021/05/14 09:46:57;;;;;;;21.48;13.78;;;;;;;12.82;79.12;95938.50;1714502;82;27404;-90
2021/05/14 09:49:27;;;;;;;22.58;15.25;;;;;;;12.81;79.06;95937.68;1716141;82;26243;-90
2021/05/14 09:52:04;;;;;;;24.43;16.73;;;;;;;12.82;79.03;95941.20;1713647;82;25662;-88
2021/05/14 09:54:39;;;;;;;24.27;16.23;;;;;;;12.83;78.94;95945.02;1728092;82;25675;-89
2021/05/14 09:57:33;;;;;;;24.90;16.25;;;;;;;12.80;78.90;95948.23;1714427;82;25603;-89
2021/05/14 09:59:56;;;;;;;25.55;16.80;;;;;;;12.77;78.93;95950.12;1718765;82;28099;-88
2021/05/14 10:02:34;;;;;;;28.70;17.82;;;;;;;12.77;78.94;95943.89;1729413;82;25690;-89
2021/05/14 10:05:06;;;;;;;26.87;17.55;;;;;;;12.77;79.01;95947.95;1712787;82;25279;-89
2021/05/14 10:07:36;;;;;;;26.23;18.82;;;;;;;12.79;78.96;95947.16;1704668;82;25614;-89
2021/05/14 10:10:06;;;;;;;26.15;18.45;;;;;;;12.78;79.00;95949.05;1705639;81;25797;-90
2021/05/14 10:12:33;;;;;;;26.60;17.67;;;;;;;12.80;79.03;95953.64;1736959;81;27419;-90
2021/05/14 10:15:02;;;;;;;28.90;18.30;;;;;;;12.82;79.03;95952.03;1710718;82;25622;-89
2021/05/14 10:17:29;;;;;;;28.50;19.50;;;;;;;12.84;79.05;95949.89;1720698;82;25692;-91
2021/05/14 10:19:59;;;;;;;23.85;18.00;;;;;;;12.81;78.99;95949.86;1716590;82;25765;-90
2021/05/14 10:22:29;;;;;;;28.65;19.70;;;;;;;12.82;78.90;95951.50;1724369;82;25748;-90
2021/05/14 10:24:59;;;;;;;29.07;19.05;;;;;;;12.88;78.88;95952.36;1700269;82;27547;-91
2021/05/14 10:27:30;;;;;;;27.52;18.15;;;;;;;12.93;78.80;95949.67;1703884;82;25633;-91
2021/05/14 10:29:59;;;;;;;28.83;19.48;;;;;;;13.01;78.78;95949.20;1729658;82;25625;-90
2021/05/14 10:32:48;;;;;;;31.87;19.30;;;;;;;13.08;78.84;95947.59;1715063;82;25842;-89
2021/05/14 10:35:33;;;;;;;32.67;20.62;;;;;;;13.17;78.82;95948.22;1721482;82;25641;-91
2021/05/14 10:38:07;;;;;;;32.38;22.07;;;;;;;13.26;78.57;95949.38;1714260;83;27360;-93
2021/05/14 10:40:39;;;;;;;30.70;20.43;;;;;;;13.34;78.56;95944.80;1715560;82;25672;-92
2021/05/14 10:43:20;;;;;;;30.08;19.57;;;;;;;13.43;78.62;95942.39;1707136;83;25621;-91
2021/05/14 10:45:49;;;;;;;32.10;20.80;;;;;;;13.47;78.40;95946.75;1708457;83;25645;-91
2021/05/14 10:48:20;;;;;;;31.42;20.82;;;;;;;13.46;78.53;95948.64;1702921;82;25793;-91
2021/05/14 10:51:00;;;;;;;32.48;21.57;;;;;;;13.48;78.48;95950.55;1705310;84;28093;-91
2021/05/14 10:53:47;;;;;;;33.18;21.20;;;;;;;13.51;78.63;95949.22;1697373;83;25673;-91
2021/05/14 10:56:24;;;;;;;31.75;21.50;;;;;;;13.56;78.60;95955.45;1691078;83;25626;-90
2021/05/14 10:59:03;;;;;;;32.00;20.90;;;;;;;13.62;78.55;95963.09;1706793;83;25709;-91
2021/05/14 11:01:38;;;;;;;30.23;20.72;;;;;;;13.65;78.46;95958.46;1705305;83;25617;-91
2021/05/14 11:04:16;;;;;;;33.53;21.77;;;;;;;13.71;78.41;95966.91;1707804;83;27354;-91
2021/05/14 11:06:47;;;;;;;34.67;22.58;;;;;;;13.71;78.46;95956.06;1694269;83;25726;-92
2021/05/14 11:09:16;;;;;;;32.13;21.87;;;;;;;13.72;78.45;95963.12;1707390;83;25674;-92
2021/05/14 11:12:09;;;;;;;31.90;21.50;;;;;;;13.80;78.69;95963.13;1707554;83;26105;-94
2021/05/14 11:14:48;;;;;;;33.15;22.00;;;;;;;13.87;78.72;95967.78;1708409;83;25781;-93
2021/05/14 11:17:17;;;;;;;33.70;21.33;;;;;;;13.95;78.45;95965.36;1705727;83;27358;-89
2021/05/14 11:19:53;;;;;;;30.27;19.82;;;;;;;13.99;78.08;95969.17;1708108;83;25718;-93
2021/05/14 11:22:31;;;;;;;26.05;18.77;;;;;;;14.08;77.99;95970.00;1707434;83;25719;-90
2021/05/14 11:25:13;;;;;;;25.32;18.65;;;;;;;14.14;77.77;95967.55;1705485;83;26250;-91
2021/05/14 11:27:48;;;;;;;30.70;19.57;;;;;;;14.19;77.79;95968.93;1706045;82;25734;-91
2021/05/14 11:30:15;;;;;;;28.52;21.00;;;;;;;14.22;77.64;95968.41;1704716;84;27532;-90
2021/05/14 11:32:47;;;;;;;31.02;21.27;;;;;;;14.27;77.85;95973.82;1710205;83;25657;-85
2021/05/14 11:35:25;;;;;;;29.72;21.23;;;;;;;14.31;77.88;95974.92;1719205;82;25639;-89
2021/05/14 11:37:58;;;;;;;26.37;19.73;;;;;;;14.36;77.86;95977.11;1729544;82;26341;-90